sensor_id;sensor_type;location;lat;lon;timestamp;P1;durP1;ratioP1;P2;durP2;ratioP2
22219;SDS011;11279;48.364;10.904;2022-12-18T00:00:43;79.10;;;31.23;;
22219;SDS011;11279;48.364;10.904;2022-12-18T00:01:44;90.83;;;33.70;;
22219;SDS011;11279;48.364;10.904;2022-12-18T00:02:44;78.33;;;31.80;;
22219;SDS011;11279;48.364;10.904;2022-12-18T00:03:44;80.00;;;31.60;;
22219;SDS011;11279;48.364;10.904;2022-12-18T00:04:45;75.97;;;31.53;;
22219;SDS011;11279;48.364;10.904;2022-12-18T00:05:49;78.07;;;32.73;;
22219;SDS011;11279;48.364;10.904;2022-12-18T00:06:50;71.30;;;29.95;;
22219;SDS011;11279;48.364;10.904;2022-12-18T00:07:50;82.10;;;32.87;;
22219;SDS011;11279;48.364;10.904;2022-12-18T00:08:51;79.57;;;32.27;;
22219;SDS011;11279;48.364;10.904;2022-12-18T00:09:51;72.00;;;29.57;;
22219;SDS011;11279;48.364;10.904;2022-12-18T00:10:52;75.97;;;31.03;;
22219;SDS011;11279;48.364;10.904;2022-12-18T00:11:53;71.73;;;30.67;;
22219;SDS011;11279;48.364;10.904;2022-12-18T00:12:53;73.67;;;30.37;;
22219;SDS011;11279;48.364;10.904;2022-12-18T00:13:54;83.53;;;31.30;;
22219;SDS011;11279;48.364;10.904;2022-12-18T00:14:56;79.65;;;32.50;;
22219;SDS011;11279;48.364;10.904;2022-12-18T00:16:00;76.20;;;29.83;;
22219;SDS011;11279;48.364;10.904;2022-12-18T00:17:04;80.20;;;34.40;;
22219;SDS011;11279;48.364;10.904;2022-12-18T00:18:05;76.77;;;30.90;;
22219;SDS011;11279;48.364;10.904;2022-12-18T00:19:06;76.03;;;32.80;;
22219;SDS011;11279;48.364;10.904;2022-12-18T00:20:07;79.07;;;32.10;;
22219;SDS011;11279;48.364;10.904;2022-12-18T00:21:09;77.13;;;29.23;;
22219;SDS011;11279;48.364;10.904;2022-12-18T00:22:10;76.50;;;31.73;;
22219;SDS011;11279;48.364;10.904;2022-12-18T00:23:10;83.13;;;31.87;;
22219;SDS011;11279;48.364;10.904;2022-12-18T00:24:11;67.33;;;29.70;;
22219;SDS011;11279;48.364;10.904;2022-12-18T00:25:11;73.63;;;30.27;;
22219;SDS011;11279;48.364;10.904;2022-12-18T00:26:13;79.67;;;31.60;;
22219;SDS011;11279;48.364;10.904;2022-12-18T00:27:15;81.97;;;31.52;;
22219;SDS011;11279;48.364;10.904;2022-12-18T00:28:15;81.27;;;31.93;;
22219;SDS011;11279;48.364;10.904;2022-12-18T00:29:16;76.40;;;32.23;;
22219;SDS011;11279;48.364;10.904;2022-12-18T00:30:16;81.73;;;31.40;;
22219;SDS011;11279;48.364;10.904;2022-12-18T00:31:18;79.07;;;31.57;;
22219;SDS011;11279;48.364;10.904;2022-12-18T00:32:19;81.53;;;31.75;;
22219;SDS011;11279;48.364;10.904;2022-12-18T00:33:20;76.30;;;32.67;;
22219;SDS011;11279;48.364;10.904;2022-12-18T00:34:20;81.07;;;32.40;;
22219;SDS011;11279;48.364;10.904;2022-12-18T00:35:21;74.90;;;31.97;;
22219;SDS011;11279;48.364;10.904;2022-12-18T00:36:25;81.97;;;33.40;;
22219;SDS011;11279;48.364;10.904;2022-12-18T00:37:27;76.18;;;29.90;;
22219;SDS011;11279;48.364;10.904;2022-12-18T00:38:28;76.33;;;31.57;;
22219;SDS011;11279;48.364;10.904;2022-12-18T00:39:28;74.13;;;30.63;;
22219;SDS011;11279;48.364;10.904;2022-12-18T00:40:28;69.10;;;30.83;;
22219;SDS011;11279;48.364;10.904;2022-12-18T00:41:29;72.47;;;30.23;;
22219;SDS011;11279;48.364;10.904;2022-12-18T00:42:48;71.13;;;29.42;;
22219;SDS011;11279;48.364;10.904;2022-12-18T00:43:57;77.32;;;31.98;;
22219;SDS011;11279;48.364;10.904;2022-12-18T00:44:57;70.03;;;30.53;;
22219;SDS011;11279;48.364;10.904;2022-12-18T00:45:58;72.33;;;30.40;;
22219;SDS011;11279;48.364;10.904;2022-12-18T00:46:58;71.93;;;31.43;;
22219;SDS011;11279;48.364;10.904;2022-12-18T00:47:59;75.43;;;31.37;;
22219;SDS011;11279;48.364;10.904;2022-12-18T00:48:59;74.00;;;31.63;;
22219;SDS011;11279;48.364;10.904;2022-12-18T00:50:00;74.87;;;29.80;;
22219;SDS011;11279;48.364;10.904;2022-12-18T00:51:00;75.00;;;29.23;;
22219;SDS011;11279;48.364;10.904;2022-12-18T00:52:00;69.90;;;28.63;;
22219;SDS011;11279;48.364;10.904;2022-12-18T00:53:01;75.30;;;29.03;;
22219;SDS011;11279;48.364;10.904;2022-12-18T00:54:01;70.43;;;28.43;;
22219;SDS011;11279;48.364;10.904;2022-12-18T00:55:02;73.47;;;30.10;;
22219;SDS011;11279;48.364;10.904;2022-12-18T00:56:03;66.13;;;28.47;;
22219;SDS011;11279;48.364;10.904;2022-12-18T00:57:03;63.47;;;27.40;;
22219;SDS011;11279;48.364;10.904;2022-12-18T00:58:04;60.60;;;26.27;;
22219;SDS011;11279;48.364;10.904;2022-12-18T00:59:04;70.37;;;27.30;;
22219;SDS011;11279;48.364;10.904;2022-12-18T01:00:05;65.77;;;28.60;;
22219;SDS011;11279;48.364;10.904;2022-12-18T01:01:08;73.63;;;29.13;;
22219;SDS011;11279;48.364;10.904;2022-12-18T01:02:08;70.13;;;28.67;;
22219;SDS011;11279;48.364;10.904;2022-12-18T01:03:09;68.53;;;29.77;;
22219;SDS011;11279;48.364;10.904;2022-12-18T01:04:13;80.30;;;28.40;;
22219;SDS011;11279;48.364;10.904;2022-12-18T01:05:13;73.47;;;30.27;;
22219;SDS011;11279;48.364;10.904;2022-12-18T01:06:14;72.30;;;30.08;;
22219;SDS011;11279;48.364;10.904;2022-12-18T01:07:16;71.72;;;28.88;;
22219;SDS011;11279;48.364;10.904;2022-12-18T01:08:16;68.13;;;28.43;;
22219;SDS011;11279;48.364;10.904;2022-12-18T01:09:16;66.97;;;29.07;;
22219;SDS011;11279;48.364;10.904;2022-12-18T01:10:17;67.83;;;28.47;;
22219;SDS011;11279;48.364;10.904;2022-12-18T01:11:18;67.17;;;27.33;;
22219;SDS011;11279;48.364;10.904;2022-12-18T01:12:19;74.78;;;29.70;;
22219;SDS011;11279;48.364;10.904;2022-12-18T01:13:20;73.53;;;31.00;;
22219;SDS011;11279;48.364;10.904;2022-12-18T01:14:20;67.73;;;27.77;;
22219;SDS011;11279;48.364;10.904;2022-12-18T01:15:21;67.90;;;26.47;;
22219;SDS011;11279;48.364;10.904;2022-12-18T01:16:21;63.30;;;27.53;;
22219;SDS011;11279;48.364;10.904;2022-12-18T01:17:22;70.37;;;29.07;;
22219;SDS011;11279;48.364;10.904;2022-12-18T01:18:22;68.30;;;28.73;;
22219;SDS011;11279;48.364;10.904;2022-12-18T01:19:23;74.87;;;28.63;;
22219;SDS011;11279;48.364;10.904;2022-12-18T01:20:23;65.80;;;27.43;;
22219;SDS011;11279;48.364;10.904;2022-12-18T01:21:24;70.00;;;29.57;;
22219;SDS011;11279;48.364;10.904;2022-12-18T01:22:24;68.03;;;27.70;;
22219;SDS011;11279;48.364;10.904;2022-12-18T01:23:25;68.63;;;27.63;;
22219;SDS011;11279;48.364;10.904;2022-12-18T01:24:25;66.50;;;27.67;;
22219;SDS011;11279;48.364;10.904;2022-12-18T01:25:26;68.33;;;27.27;;
22219;SDS011;11279;48.364;10.904;2022-12-18T01:26:26;77.57;;;30.57;;
22219;SDS011;11279;48.364;10.904;2022-12-18T01:27:29;72.68;;;29.80;;
22219;SDS011;11279;48.364;10.904;2022-12-18T01:28:30;71.67;;;28.13;;
22219;SDS011;11279;48.364;10.904;2022-12-18T01:29:30;79.13;;;27.93;;
22219;SDS011;11279;48.364;10.904;2022-12-18T01:30:31;83.80;;;30.83;;
22219;SDS011;11279;48.364;10.904;2022-12-18T01:31:32;78.90;;;31.50;;
22219;SDS011;11279;48.364;10.904;2022-12-18T01:32:33;89.07;;;33.10;;
22219;SDS011;11279;48.364;10.904;2022-12-18T01:33:33;82.57;;;31.60;;
22219;SDS011;11279;48.364;10.904;2022-12-18T01:34:37;83.40;;;31.33;;
22219;SDS011;11279;48.364;10.904;2022-12-18T01:35:41;83.57;;;31.58;;
22219;SDS011;11279;48.364;10.904;2022-12-18T01:36:42;84.70;;;29.63;;
22219;SDS011;11279;48.364;10.904;2022-12-18T01:37:42;82.10;;;30.97;;
22219;SDS011;11279;48.364;10.904;2022-12-18T01:38:43;84.87;;;32.50;;
22219;SDS011;11279;48.364;10.904;2022-12-18T01:39:44;78.15;;;30.52;;
22219;SDS011;11279;48.364;10.904;2022-12-18T01:40:45;84.53;;;31.27;;
22219;SDS011;11279;48.364;10.904;2022-12-18T01:41:45;86.10;;;32.30;;
22219;SDS011;11279;48.364;10.904;2022-12-18T01:43:01;91.00;;;30.60;;
22219;SDS011;11279;48.364;10.904;2022-12-18T01:44:46;86.77;;;31.80;;
22219;SDS011;11279;48.364;10.904;2022-12-18T01:45:40;94.20;;;31.85;;
22219;SDS011;11279;48.364;10.904;2022-12-18T01:46:41;90.77;;;32.47;;
22219;SDS011;11279;48.364;10.904;2022-12-18T01:47:43;86.53;;;33.73;;
22219;SDS011;11279;48.364;10.904;2022-12-18T01:48:48;85.93;;;31.88;;
22219;SDS011;11279;48.364;10.904;2022-12-18T01:49:51;92.68;;;33.45;;
22219;SDS011;11279;48.364;10.904;2022-12-18T01:50:52;92.70;;;31.97;;
22219;SDS011;11279;48.364;10.904;2022-12-18T01:51:52;96.47;;;32.23;;
22219;SDS011;11279;48.364;10.904;2022-12-18T01:52:53;94.10;;;31.27;;
22219;SDS011;11279;48.364;10.904;2022-12-18T01:53:56;92.65;;;32.97;;
22219;SDS011;11279;48.364;10.904;2022-12-18T01:54:57;83.57;;;30.25;;
22219;SDS011;11279;48.364;10.904;2022-12-18T01:55:58;96.35;;;32.10;;
22219;SDS011;11279;48.364;10.904;2022-12-18T01:56:59;87.17;;;33.23;;
22219;SDS011;11279;48.364;10.904;2022-12-18T01:58:01;111.57;;;34.15;;
22219;SDS011;11279;48.364;10.904;2022-12-18T01:59:03;99.53;;;34.60;;
22219;SDS011;11279;48.364;10.904;2022-12-18T02:00:07;102.00;;;32.03;;
22219;SDS011;11279;48.364;10.904;2022-12-18T02:01:10;103.72;;;33.58;;
22219;SDS011;11279;48.364;10.904;2022-12-18T02:02:11;101.30;;;34.27;;
22219;SDS011;11279;48.364;10.904;2022-12-18T02:03:11;93.57;;;29.90;;
22219;SDS011;11279;48.364;10.904;2022-12-18T02:04:22;96.77;;;33.93;;
22219;SDS011;11279;48.364;10.904;2022-12-18T02:06:42;99.93;;;32.13;;
22219;SDS011;11279;48.364;10.904;2022-12-18T02:08:56;103.45;;;33.97;;
22219;SDS011;11279;48.364;10.904;2022-12-18T02:11:39;97.70;;;32.78;;
22219;SDS011;11279;48.364;10.904;2022-12-18T02:13:03;101.93;;;32.83;;
22219;SDS011;11279;48.364;10.904;2022-12-18T02:14:18;89.35;;;31.88;;
22219;SDS011;11279;48.364;10.904;2022-12-18T02:18:05;106.93;;;33.75;;
22219;SDS011;11279;48.364;10.904;2022-12-18T02:20:36;86.97;;;31.98;;
22219;SDS011;11279;48.364;10.904;2022-12-18T02:21:55;89.55;;;32.30;;
22219;SDS011;11279;48.364;10.904;2022-12-18T02:23:21;94.10;;;31.48;;
22219;SDS011;11279;48.364;10.904;2022-12-18T02:24:30;85.72;;;29.95;;
22219;SDS011;11279;48.364;10.904;2022-12-18T02:25:40;109.97;;;32.65;;
22219;SDS011;11279;48.364;10.904;2022-12-18T02:27:03;102.85;;;32.42;;
22219;SDS011;11279;48.364;10.904;2022-12-18T02:28:09;96.95;;;31.58;;
22219;SDS011;11279;48.364;10.904;2022-12-18T02:29:13;122.55;;;33.38;;
22219;SDS011;11279;48.364;10.904;2022-12-18T02:30:15;121.53;;;35.53;;
22219;SDS011;11279;48.364;10.904;2022-12-18T02:31:21;108.90;;;35.20;;
22219;SDS011;11279;48.364;10.904;2022-12-18T02:32:25;116.50;;;35.17;;
22219;SDS011;11279;48.364;10.904;2022-12-18T02:33:27;103.90;;;34.60;;
22219;SDS011;11279;48.364;10.904;2022-12-18T02:34:30;107.85;;;35.53;;
22219;SDS011;11279;48.364;10.904;2022-12-18T02:35:31;98.40;;;33.53;;
22219;SDS011;11279;48.364;10.904;2022-12-18T02:36:32;103.85;;;33.67;;
22219;SDS011;11279;48.364;10.904;2022-12-18T02:37:34;97.57;;;34.97;;
22219;SDS011;11279;48.364;10.904;2022-12-18T02:38:35;100.47;;;33.30;;
22219;SDS011;11279;48.364;10.904;2022-12-18T02:39:37;94.38;;;31.55;;
22219;SDS011;11279;48.364;10.904;2022-12-18T02:40:38;96.40;;;33.28;;
22219;SDS011;11279;48.364;10.904;2022-12-18T02:41:40;99.53;;;33.25;;
22219;SDS011;11279;48.364;10.904;2022-12-18T02:42:40;88.70;;;32.97;;
22219;SDS011;11279;48.364;10.904;2022-12-18T02:43:45;78.47;;;31.17;;
22219;SDS011;11279;48.364;10.904;2022-12-18T02:44:48;83.70;;;31.25;;
22219;SDS011;11279;48.364;10.904;2022-12-18T02:45:53;83.28;;;30.30;;
22219;SDS011;11279;48.364;10.904;2022-12-18T02:46:55;77.88;;;30.10;;
22219;SDS011;11279;48.364;10.904;2022-12-18T02:47:56;91.27;;;31.70;;
22219;SDS011;11279;48.364;10.904;2022-12-18T02:49:01;93.47;;;31.80;;
22219;SDS011;11279;48.364;10.904;2022-12-18T02:55:53;86.55;;;30.48;;
22219;SDS011;11279;48.364;10.904;2022-12-18T02:57:48;85.63;;;28.85;;
22219;SDS011;11279;48.364;10.904;2022-12-18T02:59:58;74.63;;;28.13;;
22219;SDS011;11279;48.364;10.904;2022-12-18T03:02:20;91.10;;;30.33;;
22219;SDS011;11279;48.364;10.904;2022-12-18T03:03:25;84.47;;;29.58;;
22219;SDS011;11279;48.364;10.904;2022-12-18T03:04:40;92.05;;;29.63;;
22219;SDS011;11279;48.364;10.904;2022-12-18T03:05:57;98.60;;;31.02;;
22219;SDS011;11279;48.364;10.904;2022-12-18T03:07:02;87.53;;;29.90;;
22219;SDS011;11279;48.364;10.904;2022-12-18T03:08:14;87.63;;;31.77;;
22219;SDS011;11279;48.364;10.904;2022-12-18T03:09:19;86.47;;;30.05;;
22219;SDS011;11279;48.364;10.904;2022-12-18T03:10:27;93.40;;;30.90;;
22219;SDS011;11279;48.364;10.904;2022-12-18T03:11:29;93.32;;;30.23;;
22219;SDS011;11279;48.364;10.904;2022-12-18T03:12:53;78.70;;;28.60;;
22219;SDS011;11279;48.364;10.904;2022-12-18T03:13:56;102.82;;;28.98;;
22219;SDS011;11279;48.364;10.904;2022-12-18T03:14:59;80.20;;;26.30;;
22219;SDS011;11279;48.364;10.904;2022-12-18T03:16:04;87.72;;;29.77;;
22219;SDS011;11279;48.364;10.904;2022-12-18T03:17:07;86.78;;;28.20;;
22219;SDS011;11279;48.364;10.904;2022-12-18T03:18:15;88.50;;;28.27;;
22219;SDS011;11279;48.364;10.904;2022-12-18T03:19:37;79.53;;;27.95;;
22219;SDS011;11279;48.364;10.904;2022-12-18T03:20:39;81.63;;;28.02;;
22219;SDS011;11279;48.364;10.904;2022-12-18T03:21:45;82.72;;;28.58;;
22219;SDS011;11279;48.364;10.904;2022-12-18T03:22:50;69.18;;;27.67;;
22219;SDS011;11279;48.364;10.904;2022-12-18T03:23:52;75.32;;;27.20;;
22219;SDS011;11279;48.364;10.904;2022-12-18T03:24:53;81.63;;;27.70;;
22219;SDS011;11279;48.364;10.904;2022-12-18T03:25:55;76.63;;;26.73;;
22219;SDS011;11279;48.364;10.904;2022-12-18T03:26:58;78.97;;;26.33;;
22219;SDS011;11279;48.364;10.904;2022-12-18T03:28:01;83.65;;;26.90;;
22219;SDS011;11279;48.364;10.904;2022-12-18T03:29:24;77.25;;;26.92;;
22219;SDS011;11279;48.364;10.904;2022-12-18T03:30:24;78.30;;;26.40;;
22219;SDS011;11279;48.364;10.904;2022-12-18T03:31:27;66.88;;;26.58;;
22219;SDS011;11279;48.364;10.904;2022-12-18T03:32:29;73.38;;;26.05;;
22219;SDS011;11279;48.364;10.904;2022-12-18T03:33:34;72.80;;;26.63;;
22219;SDS011;11279;48.364;10.904;2022-12-18T03:34:39;76.13;;;27.10;;
22219;SDS011;11279;48.364;10.904;2022-12-18T03:35:41;70.28;;;24.40;;
22219;SDS011;11279;48.364;10.904;2022-12-18T03:36:43;76.97;;;26.42;;
22219;SDS011;11279;48.364;10.904;2022-12-18T03:37:43;82.67;;;27.57;;
22219;SDS011;11279;48.364;10.904;2022-12-18T03:38:43;73.30;;;22.97;;
22219;SDS011;11279;48.364;10.904;2022-12-18T03:39:44;79.80;;;26.10;;
22219;SDS011;11279;48.364;10.904;2022-12-18T03:40:50;71.37;;;25.90;;
22219;SDS011;11279;48.364;10.904;2022-12-18T03:43:20;78.38;;;25.23;;
22219;SDS011;11279;48.364;10.904;2022-12-18T03:45:52;67.53;;;24.92;;
22219;SDS011;11279;48.364;10.904;2022-12-18T03:47:09;69.65;;;23.67;;
22219;SDS011;11279;48.364;10.904;2022-12-18T03:48:37;85.25;;;23.92;;
22219;SDS011;11279;48.364;10.904;2022-12-18T03:49:38;71.65;;;24.23;;
22219;SDS011;11279;48.364;10.904;2022-12-18T03:51:04;72.80;;;22.67;;
22219;SDS011;11279;48.364;10.904;2022-12-18T03:52:09;65.57;;;22.70;;
22219;SDS011;11279;48.364;10.904;2022-12-18T03:54:38;75.28;;;24.73;;
22219;SDS011;11279;48.364;10.904;2022-12-18T03:55:41;70.43;;;24.02;;
22219;SDS011;11279;48.364;10.904;2022-12-18T03:56:42;71.37;;;23.40;;
22219;SDS011;11279;48.364;10.904;2022-12-18T03:57:44;70.53;;;24.35;;
22219;SDS011;11279;48.364;10.904;2022-12-18T03:58:45;68.40;;;25.55;;
22219;SDS011;11279;48.364;10.904;2022-12-18T03:59:49;76.53;;;24.95;;
22219;SDS011;11279;48.364;10.904;2022-12-18T04:00:52;74.57;;;24.92;;
22219;SDS011;11279;48.364;10.904;2022-12-18T04:01:54;74.93;;;25.85;;
22219;SDS011;11279;48.364;10.904;2022-12-18T04:02:56;78.72;;;27.08;;
22219;SDS011;11279;48.364;10.904;2022-12-18T04:03:58;79.30;;;25.55;;
22219;SDS011;11279;48.364;10.904;2022-12-18T04:05:01;74.90;;;22.52;;
22219;SDS011;11279;48.364;10.904;2022-12-18T04:06:03;72.85;;;26.30;;
22219;SDS011;11279;48.364;10.904;2022-12-18T04:07:05;73.35;;;25.33;;
22219;SDS011;11279;48.364;10.904;2022-12-18T04:08:06;73.07;;;24.85;;
22219;SDS011;11279;48.364;10.904;2022-12-18T04:09:06;71.23;;;25.37;;
22219;SDS011;11279;48.364;10.904;2022-12-18T04:10:07;78.73;;;25.57;;
22219;SDS011;11279;48.364;10.904;2022-12-18T04:11:09;74.97;;;27.55;;
22219;SDS011;11279;48.364;10.904;2022-12-18T04:12:10;73.97;;;24.87;;
22219;SDS011;11279;48.364;10.904;2022-12-18T04:13:10;75.03;;;26.73;;
22219;SDS011;11279;48.364;10.904;2022-12-18T04:14:11;70.93;;;25.23;;
22219;SDS011;11279;48.364;10.904;2022-12-18T04:15:12;70.50;;;24.27;;
22219;SDS011;11279;48.364;10.904;2022-12-18T04:16:13;69.28;;;24.70;;
22219;SDS011;11279;48.364;10.904;2022-12-18T04:17:13;71.80;;;24.07;;
22219;SDS011;11279;48.364;10.904;2022-12-18T04:18:13;68.37;;;25.50;;
22219;SDS011;11279;48.364;10.904;2022-12-18T04:19:14;75.70;;;25.67;;
22219;SDS011;11279;48.364;10.904;2022-12-18T04:20:15;66.73;;;23.73;;
22219;SDS011;11279;48.364;10.904;2022-12-18T04:21:15;69.05;;;25.50;;
22219;SDS011;11279;48.364;10.904;2022-12-18T04:22:16;65.10;;;24.50;;
22219;SDS011;11279;48.364;10.904;2022-12-18T04:23:16;62.23;;;22.17;;
22219;SDS011;11279;48.364;10.904;2022-12-18T04:24:17;70.43;;;26.03;;
22219;SDS011;11279;48.364;10.904;2022-12-18T04:25:17;70.77;;;24.83;;
22219;SDS011;11279;48.364;10.904;2022-12-18T04:26:18;75.65;;;25.95;;
22219;SDS011;11279;48.364;10.904;2022-12-18T04:27:18;64.73;;;24.13;;
22219;SDS011;11279;48.364;10.904;2022-12-18T04:28:19;67.90;;;23.00;;
22219;SDS011;11279;48.364;10.904;2022-12-18T04:29:19;64.13;;;23.87;;
22219;SDS011;11279;48.364;10.904;2022-12-18T04:30:20;64.63;;;24.90;;
22219;SDS011;11279;48.364;10.904;2022-12-18T04:31:20;72.37;;;24.90;;
22219;SDS011;11279;48.364;10.904;2022-12-18T04:32:21;79.60;;;25.73;;
22219;SDS011;11279;48.364;10.904;2022-12-18T04:33:21;78.67;;;26.50;;
22219;SDS011;11279;48.364;10.904;2022-12-18T04:34:22;81.40;;;24.93;;
22219;SDS011;11279;48.364;10.904;2022-12-18T04:35:22;66.83;;;25.47;;
22219;SDS011;11279;48.364;10.904;2022-12-18T04:36:23;78.47;;;25.07;;
22219;SDS011;11279;48.364;10.904;2022-12-18T04:37:23;68.83;;;25.53;;
22219;SDS011;11279;48.364;10.904;2022-12-18T04:38:24;69.63;;;25.73;;
22219;SDS011;11279;48.364;10.904;2022-12-18T04:39:24;76.63;;;25.23;;
22219;SDS011;11279;48.364;10.904;2022-12-18T04:40:24;73.23;;;26.97;;
22219;SDS011;11279;48.364;10.904;2022-12-18T04:41:25;77.07;;;28.10;;
22219;SDS011;11279;48.364;10.904;2022-12-18T04:42:25;82.10;;;28.43;;
22219;SDS011;11279;48.364;10.904;2022-12-18T04:43:26;76.40;;;26.93;;
22219;SDS011;11279;48.364;10.904;2022-12-18T04:44:26;75.03;;;26.43;;
22219;SDS011;11279;48.364;10.904;2022-12-18T04:45:27;74.87;;;25.93;;
22219;SDS011;11279;48.364;10.904;2022-12-18T04:46:27;72.13;;;24.70;;
22219;SDS011;11279;48.364;10.904;2022-12-18T04:47:27;76.03;;;26.83;;
22219;SDS011;11279;48.364;10.904;2022-12-18T04:48:28;70.63;;;25.87;;
22219;SDS011;11279;48.364;10.904;2022-12-18T04:49:28;78.67;;;27.40;;
22219;SDS011;11279;48.364;10.904;2022-12-18T04:50:29;70.67;;;26.40;;
22219;SDS011;11279;48.364;10.904;2022-12-18T04:51:30;73.53;;;25.58;;
22219;SDS011;11279;48.364;10.904;2022-12-18T04:52:30;71.43;;;26.80;;
22219;SDS011;11279;48.364;10.904;2022-12-18T04:53:31;75.97;;;28.67;;
22219;SDS011;11279;48.364;10.904;2022-12-18T04:54:31;79.37;;;27.37;;
22219;SDS011;11279;48.364;10.904;2022-12-18T04:55:32;69.80;;;26.53;;
22219;SDS011;11279;48.364;10.904;2022-12-18T04:56:32;72.63;;;26.80;;
22219;SDS011;11279;48.364;10.904;2022-12-18T04:57:33;72.83;;;26.43;;
22219;SDS011;11279;48.364;10.904;2022-12-18T04:58:33;73.17;;;26.83;;
22219;SDS011;11279;48.364;10.904;2022-12-18T04:59:34;63.10;;;25.60;;
22219;SDS011;11279;48.364;10.904;2022-12-18T05:00:34;74.80;;;25.83;;
22219;SDS011;11279;48.364;10.904;2022-12-18T05:01:34;66.13;;;25.17;;
22219;SDS011;11279;48.364;10.904;2022-12-18T05:02:35;67.73;;;25.57;;
22219;SDS011;11279;48.364;10.904;2022-12-18T05:03:36;61.83;;;26.27;;
22219;SDS011;11279;48.364;10.904;2022-12-18T05:04:37;74.32;;;26.77;;
22219;SDS011;11279;48.364;10.904;2022-12-18T05:05:37;71.53;;;25.83;;
22219;SDS011;11279;48.364;10.904;2022-12-18T05:06:37;67.07;;;25.07;;
22219;SDS011;11279;48.364;10.904;2022-12-18T05:07:38;73.17;;;27.23;;
22219;SDS011;11279;48.364;10.904;2022-12-18T05:08:39;68.17;;;25.77;;
22219;SDS011;11279;48.364;10.904;2022-12-18T05:09:39;73.80;;;27.87;;
22219;SDS011;11279;48.364;10.904;2022-12-18T05:10:39;70.87;;;27.07;;
22219;SDS011;11279;48.364;10.904;2022-12-18T05:11:40;65.43;;;24.73;;
22219;SDS011;11279;48.364;10.904;2022-12-18T05:12:40;60.87;;;25.00;;
22219;SDS011;11279;48.364;10.904;2022-12-18T05:13:58;66.32;;;25.58;;
22219;SDS011;11279;48.364;10.904;2022-12-18T05:14:58;70.27;;;25.20;;
22219;SDS011;11279;48.364;10.904;2022-12-18T05:15:58;63.57;;;22.90;;
22219;SDS011;11279;48.364;10.904;2022-12-18T05:16:59;69.73;;;25.97;;
22219;SDS011;11279;48.364;10.904;2022-12-18T05:17:59;68.77;;;25.53;;
22219;SDS011;11279;48.364;10.904;2022-12-18T05:19:00;69.05;;;25.50;;
22219;SDS011;11279;48.364;10.904;2022-12-18T05:20:01;75.60;;;25.97;;
22219;SDS011;11279;48.364;10.904;2022-12-18T05:21:01;73.50;;;26.83;;
22219;SDS011;11279;48.364;10.904;2022-12-18T05:22:02;65.93;;;26.58;;
22219;SDS011;11279;48.364;10.904;2022-12-18T05:23:03;77.90;;;27.90;;
22219;SDS011;11279;48.364;10.904;2022-12-18T05:24:03;78.60;;;27.20;;
22219;SDS011;11279;48.364;10.904;2022-12-18T05:25:04;69.40;;;24.67;;
22219;SDS011;11279;48.364;10.904;2022-12-18T05:26:05;70.10;;;27.50;;
22219;SDS011;11279;48.364;10.904;2022-12-18T05:27:07;71.88;;;26.67;;
22219;SDS011;11279;48.364;10.904;2022-12-18T05:28:08;68.20;;;25.03;;
22219;SDS011;11279;48.364;10.904;2022-12-18T05:29:08;71.73;;;27.37;;
22219;SDS011;11279;48.364;10.904;2022-12-18T05:30:12;81.82;;;28.60;;
22219;SDS011;11279;48.364;10.904;2022-12-18T05:31:13;66.23;;;26.27;;
22219;SDS011;11279;48.364;10.904;2022-12-18T05:32:13;72.23;;;27.63;;
22219;SDS011;11279;48.364;10.904;2022-12-18T05:33:14;76.10;;;29.13;;
22219;SDS011;11279;48.364;10.904;2022-12-18T05:34:14;74.07;;;27.07;;
22219;SDS011;11279;48.364;10.904;2022-12-18T05:35:15;74.27;;;26.97;;
22219;SDS011;11279;48.364;10.904;2022-12-18T05:36:15;77.70;;;26.57;;
22219;SDS011;11279;48.364;10.904;2022-12-18T05:37:16;74.83;;;27.30;;
22219;SDS011;11279;48.364;10.904;2022-12-18T05:38:17;73.47;;;26.55;;
22219;SDS011;11279;48.364;10.904;2022-12-18T05:39:18;73.43;;;25.45;;
22219;SDS011;11279;48.364;10.904;2022-12-18T05:40:18;72.87;;;26.10;;
22219;SDS011;11279;48.364;10.904;2022-12-18T05:41:19;75.33;;;25.67;;
22219;SDS011;11279;48.364;10.904;2022-12-18T05:42:19;75.83;;;26.57;;
22219;SDS011;11279;48.364;10.904;2022-12-18T05:43:20;69.70;;;26.00;;
22219;SDS011;11279;48.364;10.904;2022-12-18T05:44:21;73.32;;;26.38;;
22219;SDS011;11279;48.364;10.904;2022-12-18T05:45:22;71.07;;;25.10;;
22219;SDS011;11279;48.364;10.904;2022-12-18T05:46:22;70.30;;;26.33;;
22219;SDS011;11279;48.364;10.904;2022-12-18T05:47:24;86.80;;;28.33;;
22219;SDS011;11279;48.364;10.904;2022-12-18T05:48:24;82.50;;;28.30;;
22219;SDS011;11279;48.364;10.904;2022-12-18T05:49:25;75.70;;;24.73;;
22219;SDS011;11279;48.364;10.904;2022-12-18T05:50:25;64.70;;;24.77;;
22219;SDS011;11279;48.364;10.904;2022-12-18T05:51:26;73.03;;;25.43;;
22219;SDS011;11279;48.364;10.904;2022-12-18T05:52:27;75.38;;;27.10;;
22219;SDS011;11279;48.364;10.904;2022-12-18T05:53:27;70.17;;;25.30;;
22219;SDS011;11279;48.364;10.904;2022-12-18T05:54:28;74.57;;;26.30;;
22219;SDS011;11279;48.364;10.904;2022-12-18T05:55:28;75.33;;;25.10;;
22219;SDS011;11279;48.364;10.904;2022-12-18T05:56:29;71.80;;;26.90;;
22219;SDS011;11279;48.364;10.904;2022-12-18T05:57:29;69.03;;;24.73;;
22219;SDS011;11279;48.364;10.904;2022-12-18T05:58:30;72.57;;;26.93;;
22219;SDS011;11279;48.364;10.904;2022-12-18T05:59:31;71.45;;;26.73;;
22219;SDS011;11279;48.364;10.904;2022-12-18T06:00:32;67.67;;;25.90;;
22219;SDS011;11279;48.364;10.904;2022-12-18T06:01:34;67.25;;;25.88;;
22219;SDS011;11279;48.364;10.904;2022-12-18T06:02:35;72.23;;;25.93;;
22219;SDS011;11279;48.364;10.904;2022-12-18T06:03:35;72.20;;;25.63;;
22219;SDS011;11279;48.364;10.904;2022-12-18T06:04:36;65.63;;;24.70;;
22219;SDS011;11279;48.364;10.904;2022-12-18T06:05:40;69.30;;;27.07;;
22219;SDS011;11279;48.364;10.904;2022-12-18T06:06:42;70.10;;;24.38;;
22219;SDS011;11279;48.364;10.904;2022-12-18T06:07:42;71.00;;;26.27;;
22219;SDS011;11279;48.364;10.904;2022-12-18T06:08:43;70.70;;;25.40;;
22219;SDS011;11279;48.364;10.904;2022-12-18T06:09:44;74.57;;;26.33;;
22219;SDS011;11279;48.364;10.904;2022-12-18T06:10:49;65.17;;;24.17;;
22219;SDS011;11279;48.364;10.904;2022-12-18T06:11:51;77.15;;;26.90;;
22219;SDS011;11279;48.364;10.904;2022-12-18T06:12:52;68.95;;;25.75;;
22219;SDS011;11279;48.364;10.904;2022-12-18T06:13:53;69.80;;;27.53;;
22219;SDS011;11279;48.364;10.904;2022-12-18T06:14:54;75.53;;;25.98;;
22219;SDS011;11279;48.364;10.904;2022-12-18T06:15:55;70.17;;;27.20;;
22219;SDS011;11279;48.364;10.904;2022-12-18T06:16:55;66.87;;;25.43;;
22219;SDS011;11279;48.364;10.904;2022-12-18T06:17:56;65.77;;;27.63;;
22219;SDS011;11279;48.364;10.904;2022-12-18T06:19:00;70.63;;;26.97;;
22219;SDS011;11279;48.364;10.904;2022-12-18T06:20:01;68.63;;;25.75;;
22219;SDS011;11279;48.364;10.904;2022-12-18T06:21:01;68.03;;;25.10;;
22219;SDS011;11279;48.364;10.904;2022-12-18T06:22:02;72.00;;;26.47;;